sensor_id;sensor_type;location;lat;lon;timestamp;temperature;humidity
7738;DHT22;29398;45.328;5.558;2024-01-10T00:00:38;3.00;99.90
7738;DHT22;29398;45.328;5.558;2024-01-10T00:01:39;2.90;99.90
7738;DHT22;29398;45.328;5.558;2024-01-10T00:02:41;2.90;99.90
7738;DHT22;29398;45.328;5.558;2024-01-10T00:03:42;2.90;99.90
7738;DHT22;29398;45.328;5.558;2024-01-10T00:04:44;2.90;99.90
7738;DHT22;29398;45.328;5.558;2024-01-10T00:05:45;2.90;99.90
7738;DHT22;29398;45.328;5.558;2024-01-10T00:06:47;2.90;99.90
7738;DHT22;29398;45.328;5.558;2024-01-10T00:07:48;2.90;99.90
7738;DHT22;29398;45.328;5.558;2024-01-10T00:08:51;2.90;99.90
7738;DHT22;29398;45.328;5.558;2024-01-10T00:09:52;2.90;99.90
7738;DHT22;29398;45.328;5.558;2024-01-10T00:10:54;2.90;99.90
7738;DHT22;29398;45.328;5.558;2024-01-10T00:11:55;2.90;99.90
7738;DHT22;29398;45.328;5.558;2024-01-10T00:12:57;2.90;99.90
7738;DHT22;29398;45.328;5.558;2024-01-10T00:13:58;2.90;99.90
7738;DHT22;29398;45.328;5.558;2024-01-10T00:15:00;2.90;99.90
7738;DHT22;29398;45.328;5.558;2024-01-10T00:16:03;2.80;99.90
7738;DHT22;29398;45.328;5.558;2024-01-10T00:17:05;2.80;99.90
7738;DHT22;29398;45.328;5.558;2024-01-10T00:18:06;2.90;99.90
7738;DHT22;29398;45.328;5.558;2024-01-10T00:19:08;2.90;99.90
7738;DHT22;29398;45.328;5.558;2024-01-10T00:20:10;2.80;99.90
7738;DHT22;29398;45.328;5.558;2024-01-10T00:21:12;2.90;99.90
7738;DHT22;29398;45.328;5.558;2024-01-10T00:22:13;2.90;99.90
7738;DHT22;29398;45.328;5.558;2024-01-10T00:23:15;2.90;99.90
7738;DHT22;29398;45.328;5.558;2024-01-10T00:24:16;2.90;99.90
7738;DHT22;29398;45.328;5.558;2024-01-10T00:25:18;2.90;99.90
7738;DHT22;29398;45.328;5.558;2024-01-10T00:26:19;3.00;99.90
7738;DHT22;29398;45.328;5.558;2024-01-10T00:27:21;3.00;99.90
7738;DHT22;29398;45.328;5.558;2024-01-10T00:28:23;3.00;99.90
7738;DHT22;29398;45.328;5.558;2024-01-10T00:29:25;3.00;99.90
7738;DHT22;29398;45.328;5.558;2024-01-10T00:30:26;3.00;99.90
7738;DHT22;29398;45.328;5.558;2024-01-10T00:31:30;3.00;99.90
7738;DHT22;29398;45.328;5.558;2024-01-10T00:32:31;3.00;99.90
7738;DHT22;29398;45.328;5.558;2024-01-10T00:33:33;3.00;99.90
7738;DHT22;29398;45.328;5.558;2024-01-10T00:34:34;3.00;99.90
7738;DHT22;29398;45.328;5.558;2024-01-10T00:35:35;3.00;99.90
7738;DHT22;29398;45.328;5.558;2024-01-10T00:36:37;3.00;99.90
7738;DHT22;29398;45.328;5.558;2024-01-10T00:37:39;2.90;99.90
7738;DHT22;29398;45.328;5.558;2024-01-10T00:38:41;3.00;99.90
7738;DHT22;29398;45.328;5.558;2024-01-10T00:39:42;2.90;99.90
7738;DHT22;29398;45.328;5.558;2024-01-10T00:40:44;3.00;99.90
7738;DHT22;29398;45.328;5.558;2024-01-10T00:41:45;3.00;99.90
7738;DHT22;29398;45.328;5.558;2024-01-10T00:42:47;3.00;99.90
7738;DHT22;29398;45.328;5.558;2024-01-10T00:43:48;3.00;99.90
7738;DHT22;29398;45.328;5.558;2024-01-10T00:44:50;3.00;99.90
7738;DHT22;29398;45.328;5.558;2024-01-10T00:45:51;2.90;99.90
7738;DHT22;29398;45.328;5.558;2024-01-10T00:46:55;3.00;99.90
7738;DHT22;29398;45.328;5.558;2024-01-10T00:47:56;3.00;99.90
7738;DHT22;29398;45.328;5.558;2024-01-10T00:48:58;3.00;99.90
7738;DHT22;29398;45.328;5.558;2024-01-10T00:49:59;3.00;99.90
7738;DHT22;29398;45.328;5.558;2024-01-10T00:51:00;3.00;99.90
7738;DHT22;29398;45.328;5.558;2024-01-10T00:52:03;3.00;99.90
7738;DHT22;29398;45.328;5.558;2024-01-10T00:53:04;3.10;99.90
7738;DHT22;29398;45.328;5.558;2024-01-10T00:54:06;3.00;99.90
7738;DHT22;29398;45.328;5.558;2024-01-10T00:55:07;3.00;99.90
7738;DHT22;29398;45.328;5.558;2024-01-10T00:56:10;3.00;99.90
7738;DHT22;29398;45.328;5.558;2024-01-10T00:57:12;3.10;99.90
7738;DHT22;29398;45.328;5.558;2024-01-10T00:58:15;3.10;99.90
7738;DHT22;29398;45.328;5.558;2024-01-10T00:59:16;3.10;99.90
7738;DHT22;29398;45.328;5.558;2024-01-10T01:00:17;3.10;99.90
7738;DHT22;29398;45.328;5.558;2024-01-10T01:01:19;3.10;99.90
7738;DHT22;29398;45.328;5.558;2024-01-10T01:02:21;3.10;99.90
7738;DHT22;29398;45.328;5.558;2024-01-10T01:03:23;3.10;99.90
7738;DHT22;29398;45.328;5.558;2024-01-10T01:04:25;3.10;99.90
7738;DHT22;29398;45.328;5.558;2024-01-10T01:05:27;3.10;99.90
7738;DHT22;29398;45.328;5.558;2024-01-10T01:06:28;3.10;99.90
7738;DHT22;29398;45.328;5.558;2024-01-10T01:07:30;3.10;99.90
7738;DHT22;29398;45.328;5.558;2024-01-10T01:08:31;3.10;99.90
7738;DHT22;29398;45.328;5.558;2024-01-10T01:09:34;3.10;99.90
7738;DHT22;29398;45.328;5.558;2024-01-10T01:10:35;3.10;99.90
7738;DHT22;29398;45.328;5.558;2024-01-10T01:11:37;3.10;99.90
7738;DHT22;29398;45.328;5.558;2024-01-10T01:12:38;3.10;99.90
7738;DHT22;29398;45.328;5.558;2024-01-10T01:13:40;3.10;99.90
7738;DHT22;29398;45.328;5.558;2024-01-10T01:14:41;3.10;99.90
7738;DHT22;29398;45.328;5.558;2024-01-10T01:15:44;3.10;99.90
7738;DHT22;29398;45.328;5.558;2024-01-10T01:16:45;3.10;99.90
7738;DHT22;29398;45.328;5.558;2024-01-10T01:17:48;3.00;99.90
7738;DHT22;29398;45.328;5.558;2024-01-10T01:18:49;3.00;99.90
7738;DHT22;29398;45.328;5.558;2024-01-10T01:19:51;3.10;99.90
7738;DHT22;29398;45.328;5.558;2024-01-10T01:20:52;3.00;99.90
7738;DHT22;29398;45.328;5.558;2024-01-10T01:21:54;3.00;99.90
7738;DHT22;29398;45.328;5.558;2024-01-10T01:22:56;3.00;99.90
7738;DHT22;29398;45.328;5.558;2024-01-10T01:23:59;3.00;99.90
7738;DHT22;29398;45.328;5.558;2024-01-10T01:25:00;3.00;99.90
7738;DHT22;29398;45.328;5.558;2024-01-10T01:26:01;3.00;99.90
7738;DHT22;29398;45.328;5.558;2024-01-10T01:27:04;3.00;99.90
7738;DHT22;29398;45.328;5.558;2024-01-10T01:28:05;3.00;99.90
7738;DHT22;29398;45.328;5.558;2024-01-10T01:29:09;3.00;99.90
7738;DHT22;29398;45.328;5.558;2024-01-10T01:30:11;3.00;99.90
7738;DHT22;29398;45.328;5.558;2024-01-10T01:31:13;3.00;99.90
7738;DHT22;29398;45.328;5.558;2024-01-10T01:32:14;3.00;99.90
7738;DHT22;29398;45.328;5.558;2024-01-10T01:33:18;2.90;99.90
7738;DHT22;29398;45.328;5.558;2024-01-10T01:34:19;3.00;99.90
7738;DHT22;29398;45.328;5.558;2024-01-10T01:35:21;2.90;99.90
7738;DHT22;29398;45.328;5.558;2024-01-10T01:36:23;2.90;99.90
7738;DHT22;29398;45.328;5.558;2024-01-10T01:37:25;3.00;99.90
7738;DHT22;29398;45.328;5.558;2024-01-10T01:38:26;3.00;99.90
7738;DHT22;29398;45.328;5.558;2024-01-10T01:39:28;3.00;99.90
7738;DHT22;29398;45.328;5.558;2024-01-10T01:40:29;3.00;99.90
7738;DHT22;29398;45.328;5.558;2024-01-10T01:41:31;3.00;99.90
7738;DHT22;29398;45.328;5.558;2024-01-10T01:42:33;3.00;99.90
7738;DHT22;29398;45.328;5.558;2024-01-10T01:43:35;3.00;99.90
7738;DHT22;29398;45.328;5.558;2024-01-10T01:44:36;3.00;99.90
7738;DHT22;29398;45.328;5.558;2024-01-10T01:45:38;3.00;99.90
7738;DHT22;29398;45.328;5.558;2024-01-10T01:46:39;3.00;99.90
7738;DHT22;29398;45.328;5.558;2024-01-10T01:47:42;3.00;99.90
7738;DHT22;29398;45.328;5.558;2024-01-10T01:48:44;2.90;99.90
7738;DHT22;29398;45.328;5.558;2024-01-10T01:49:47;3.00;99.90
7738;DHT22;29398;45.328;5.558;2024-01-10T01:50:50;3.00;99.90
7738;DHT22;29398;45.328;5.558;2024-01-10T01:51:52;3.00;99.90
7738;DHT22;29398;45.328;5.558;2024-01-10T01:52:54;3.00;99.90
7738;DHT22;29398;45.328;5.558;2024-01-10T01:53:55;3.00;99.90
7738;DHT22;29398;45.328;5.558;2024-01-10T01:54:57;3.00;99.90
7738;DHT22;29398;45.328;5.558;2024-01-10T01:56:02;3.00;99.90
7738;DHT22;29398;45.328;5.558;2024-01-10T01:57:05;3.00;99.90
7738;DHT22;29398;45.328;5.558;2024-01-10T01:58:06;3.00;99.90
7738;DHT22;29398;45.328;5.558;2024-01-10T01:59:08;3.00;99.90
7738;DHT22;29398;45.328;5.558;2024-01-10T02:00:11;3.00;99.90
7738;DHT22;29398;45.328;5.558;2024-01-10T02:01:12;3.00;99.90
7738;DHT22;29398;45.328;5.558;2024-01-10T02:02:15;3.00;99.90
7738;DHT22;29398;45.328;5.558;2024-01-10T02:03:17;2.90;99.90
7738;DHT22;29398;45.328;5.558;2024-01-10T02:04:20;2.90;99.90
7738;DHT22;29398;45.328;5.558;2024-01-10T02:05:21;2.90;99.90
7738;DHT22;29398;45.328;5.558;2024-01-10T02:06:24;2.90;99.90
7738;DHT22;29398;45.328;5.558;2024-01-10T02:07:25;2.90;99.90
7738;DHT22;29398;45.328;5.558;2024-01-10T02:08:27;2.90;99.90
7738;DHT22;29398;45.328;5.558;2024-01-10T02:09:28;2.90;99.90
7738;DHT22;29398;45.328;5.558;2024-01-10T02:10:30;2.90;99.90
7738;DHT22;29398;45.328;5.558;2024-01-10T02:11:31;2.90;99.90
7738;DHT22;29398;45.328;5.558;2024-01-10T02:12:34;2.80;99.90
7738;DHT22;29398;45.328;5.558;2024-01-10T02:13:35;2.90;99.90
7738;DHT22;29398;45.328;5.558;2024-01-10T02:14:37;2.90;99.90
7738;DHT22;29398;45.328;5.558;2024-01-10T02:15:38;2.90;99.90
7738;DHT22;29398;45.328;5.558;2024-01-10T02:16:40;2.90;99.90
7738;DHT22;29398;45.328;5.558;2024-01-10T02:17:41;2.90;99.90
7738;DHT22;29398;45.328;5.558;2024-01-10T02:18:44;2.90;99.90
7738;DHT22;29398;45.328;5.558;2024-01-10T02:19:46;2.90;99.90
7738;DHT22;29398;45.328;5.558;2024-01-10T02:20:49;2.90;99.90
7738;DHT22;29398;45.328;5.558;2024-01-10T02:21:50;2.90;99.90
7738;DHT22;29398;45.328;5.558;2024-01-10T02:22:51;2.90;99.90
7738;DHT22;29398;45.328;5.558;2024-01-10T02:23:53;2.90;99.90
7738;DHT22;29398;45.328;5.558;2024-01-10T02:24:56;2.90;99.90
7738;DHT22;29398;45.328;5.558;2024-01-10T02:25:58;2.90;99.90
7738;DHT22;29398;45.328;5.558;2024-01-10T02:26:59;2.90;99.90
7738;DHT22;29398;45.328;5.558;2024-01-10T02:28:01;2.90;99.90
7738;DHT22;29398;45.328;5.558;2024-01-10T02:29:02;2.90;99.90
7738;DHT22;29398;45.328;5.558;2024-01-10T02:30:06;2.90;99.90
7738;DHT22;29398;45.328;5.558;2024-01-10T02:31:07;2.80;99.90
7738;DHT22;29398;45.328;5.558;2024-01-10T02:32:09;2.80;99.90
7738;DHT22;29398;45.328;5.558;2024-01-10T02:33:10;2.80;99.90
7738;DHT22;29398;45.328;5.558;2024-01-10T02:34:12;2.90;99.90
7738;DHT22;29398;45.328;5.558;2024-01-10T02:35:13;2.90;99.90
7738;DHT22;29398;45.328;5.558;2024-01-10T02:36:16;2.90;99.90
7738;DHT22;29398;45.328;5.558;2024-01-10T02:37:17;2.90;99.90
7738;DHT22;29398;45.328;5.558;2024-01-10T02:38:19;2.90;99.90
7738;DHT22;29398;45.328;5.558;2024-01-10T02:39:24;2.90;99.90
7738;DHT22;29398;45.328;5.558;2024-01-10T02:40:27;2.90;99.90
7738;DHT22;29398;45.328;5.558;2024-01-10T02:41:28;2.90;99.90
7738;DHT22;29398;45.328;5.558;2024-01-10T02:42:29;2.90;99.90
7738;DHT22;29398;45.328;5.558;2024-01-10T02:43:32;3.00;99.90
7738;DHT22;29398;45.328;5.558;2024-01-10T02:44:33;2.90;99.90
7738;DHT22;29398;45.328;5.558;2024-01-10T02:45:35;2.80;99.90
7738;DHT22;29398;45.328;5.558;2024-01-10T02:46:36;2.80;99.90
7738;DHT22;29398;45.328;5.558;2024-01-10T02:47:38;2.80;99.90
7738;DHT22;29398;45.328;5.558;2024-01-10T02:48:40;2.80;99.90
7738;DHT22;29398;45.328;5.558;2024-01-10T02:49:42;2.80;99.90
7738;DHT22;29398;45.328;5.558;2024-01-10T02:50:43;2.90;99.90
7738;DHT22;29398;45.328;5.558;2024-01-10T02:51:44;2.90;99.90
7738;DHT22;29398;45.328;5.558;2024-01-10T02:52:46;2.90;99.90
7738;DHT22;29398;45.328;5.558;2024-01-10T02:53:47;2.90;99.90
7738;DHT22;29398;45.328;5.558;2024-01-10T02:54:49;2.90;99.90
7738;DHT22;29398;45.328;5.558;2024-01-10T02:55:51;2.90;99.90
7738;DHT22;29398;45.328;5.558;2024-01-10T02:56:54;2.90;99.90
7738;DHT22;29398;45.328;5.558;2024-01-10T02:57:55;2.90;99.90
7738;DHT22;29398;45.328;5.558;2024-01-10T02:58:57;2.90;99.90
7738;DHT22;29398;45.328;5.558;2024-01-10T02:59:58;3.00;99.90
7738;DHT22;29398;45.328;5.558;2024-01-10T03:01:00;3.00;99.90
7738;DHT22;29398;45.328;5.558;2024-01-10T03:02:02;3.00;99.90
7738;DHT22;29398;45.328;5.558;2024-01-10T03:03:04;3.00;99.90
7738;DHT22;29398;45.328;5.558;2024-01-10T03:04:05;3.00;99.90
7738;DHT22;29398;45.328;5.558;2024-01-10T03:05:08;3.00;99.90
7738;DHT22;29398;45.328;5.558;2024-01-10T03:06:09;3.10;99.90
7738;DHT22;29398;45.328;5.558;2024-01-10T03:07:14;3.00;99.90
7738;DHT22;29398;45.328;5.558;2024-01-10T03:08:15;3.00;99.90
7738;DHT22;29398;45.328;5.558;2024-01-10T03:09:17;2.90;99.90
7738;DHT22;29398;45.328;5.558;2024-01-10T03:10:18;2.90;99.90
7738;DHT22;29398;45.328;5.558;2024-01-10T03:11:22;2.90;99.90
7738;DHT22;29398;45.328;5.558;2024-01-10T03:12:23;2.90;99.90
7738;DHT22;29398;45.328;5.558;2024-01-10T03:13:25;2.90;99.90
7738;DHT22;29398;45.328;5.558;2024-01-10T03:14:26;2.80;99.90
7738;DHT22;29398;45.328;5.558;2024-01-10T03:15:28;2.90;99.90
7738;DHT22;29398;45.328;5.558;2024-01-10T03:16:29;2.80;99.90
7738;DHT22;29398;45.328;5.558;2024-01-10T03:17:31;2.80;99.90
7738;DHT22;29398;45.328;5.558;2024-01-10T03:18:34;2.80;99.90
7738;DHT22;29398;45.328;5.558;2024-01-10T03:19:36;2.80;99.90
7738;DHT22;29398;45.328;5.558;2024-01-10T11:37:14;4.60;99.90
7738;DHT22;29398;45.328;5.558;2024-01-10T11:38:16;4.60;99.90
7738;DHT22;29398;45.328;5.558;2024-01-10T11:39:19;4.60;99.90
7738;DHT22;29398;45.328;5.558;2024-01-10T11:40:47;4.60;99.90
7738;DHT22;29398;45.328;5.558;2024-01-10T11:41:50;4.60;99.90
7738;DHT22;29398;45.328;5.558;2024-01-10T11:42:52;4.60;99.90
7738;DHT22;29398;45.328;5.558;2024-01-10T11:44:25;4.60;99.90
7738;DHT22;29398;45.328;5.558;2024-01-10T11:45:36;4.70;99.90
7738;DHT22;29398;45.328;5.558;2024-01-10T11:46:39;4.70;99.90
7738;DHT22;29398;45.328;5.558;2024-01-10T11:47:40;4.80;99.90
7738;DHT22;29398;45.328;5.558;2024-01-10T11:48:43;4.80;99.90
7738;DHT22;29398;45.328;5.558;2024-01-10T11:49:54;4.80;99.90
7738;DHT22;29398;45.328;5.558;2024-01-10T11:50:57;4.80;99.90
7738;DHT22;29398;45.328;5.558;2024-01-10T11:51:59;4.80;99.90
7738;DHT22;29398;45.328;5.558;2024-01-10T11:53:03;4.90;99.90
7738;DHT22;29398;45.328;5.558;2024-01-10T11:54:04;4.80;99.90
7738;DHT22;29398;45.328;5.558;2024-01-10T11:55:06;4.90;99.90
7738;DHT22;29398;45.328;5.558;2024-01-10T11:56:10;4.90;99.90
7738;DHT22;29398;45.328;5.558;2024-01-10T11:57:19;4.90;99.90
7738;DHT22;29398;45.328;5.558;2024-01-10T11:58:23;4.90;99.90
7738;DHT22;29398;45.328;5.558;2024-01-10T11:59:24;5.00;99.90
7738;DHT22;29398;45.328;5.558;2024-01-10T12:00:26;4.90;99.90
7738;DHT22;29398;45.328;5.558;2024-01-10T12:01:29;4.90;99.90
7738;DHT22;29398;45.328;5.558;2024-01-10T12:02:30;5.00;99.90
7738;DHT22;29398;45.328;5.558;2024-01-10T12:03:33;5.00;99.90
7738;DHT22;29398;45.328;5.558;2024-01-10T12:04:34;5.10;99.90
7738;DHT22;29398;45.328;5.558;2024-01-10T12:05:36;5.10;99.90
7738;DHT22;29398;45.328;5.558;2024-01-10T12:06:38;5.10;99.90
7738;DHT22;29398;45.328;5.558;2024-01-10T12:07:40;5.10;99.90
7738;DHT22;29398;45.328;5.558;2024-01-10T12:08:43;5.20;99.90
7738;DHT22;29398;45.328;5.558;2024-01-10T12:09:46;5.20;99.90
7738;DHT22;29398;45.328;5.558;2024-01-10T12:10:48;5.10;99.90
7738;DHT22;29398;45.328;5.558;2024-01-10T12:11:49;5.10;99.90
7738;DHT22;29398;45.328;5.558;2024-01-10T12:12:51;5.00;99.90
7738;DHT22;29398;45.328;5.558;2024-01-10T12:13:55;5.00;99.90
7738;DHT22;29398;45.328;5.558;2024-01-10T12:14:56;5.00;99.90
7738;DHT22;29398;45.328;5.558;2024-01-10T12:15:57;5.00;99.90
7738;DHT22;29398;45.328;5.558;2024-01-10T12:17:00;4.90;99.90
7738;DHT22;29398;45.328;5.558;2024-01-10T12:18:01;4.90;99.90
7738;DHT22;29398;45.328;5.558;2024-01-10T12:19:05;4.90;99.90
7738;DHT22;29398;45.328;5.558;2024-01-10T12:20:07;4.90;99.90
7738;DHT22;29398;45.328;5.558;2024-01-10T12:21:08;4.90;99.90
7738;DHT22;29398;45.328;5.558;2024-01-10T12:22:10;4.90;99.90
7738;DHT22;29398;45.328;5.558;2024-01-10T12:23:11;4.90;99.90
7738;DHT22;29398;45.328;5.558;2024-01-10T12:24:15;4.90;99.90
7738;DHT22;29398;45.328;5.558;2024-01-10T12:25:16;5.00;99.90
7738;DHT22;29398;45.328;5.558;2024-01-10T12:26:20;5.00;99.90
7738;DHT22;29398;45.328;5.558;2024-01-10T12:27:21;5.00;99.90
7738;DHT22;29398;45.328;5.558;2024-01-10T12:28:23;5.10;99.90
7738;DHT22;29398;45.328;5.558;2024-01-10T12:29:24;5.10;99.90
7738;DHT22;29398;45.328;5.558;2024-01-10T12:30:26;5.10;99.90
7738;DHT22;29398;45.328;5.558;2024-01-10T12:31:28;5.10;99.90
7738;DHT22;29398;45.328;5.558;2024-01-10T12:32:31;5.10;99.90
7738;DHT22;29398;45.328;5.558;2024-01-10T12:33:33;5.10;99.90
7738;DHT22;29398;45.328;5.558;2024-01-10T12:34:38;5.10;99.90
7738;DHT22;29398;45.328;5.558;2024-01-10T12:35:40;5.00;99.90
7738;DHT22;29398;45.328;5.558;2024-01-10T12:36:43;5.00;99.90
7738;DHT22;29398;45.328;5.558;2024-01-10T12:37:53;5.00;99.90
7738;DHT22;29398;45.328;5.558;2024-01-10T12:38:56;5.00;99.90
7738;DHT22;29398;45.328;5.558;2024-01-10T12:39:58;5.00;99.90
7738;DHT22;29398;45.328;5.558;2024-01-10T12:41:01;5.10;99.90
7738;DHT22;29398;45.328;5.558;2024-01-10T12:42:02;5.10;99.90
7738;DHT22;29398;45.328;5.558;2024-01-10T12:43:06;5.00;99.90
7738;DHT22;29398;45.328;5.558;2024-01-10T12:44:10;5.00;99.90
7738;DHT22;29398;45.328;5.558;2024-01-10T12:45:20;5.10;99.90
7738;DHT22;29398;45.328;5.558;2024-01-10T12:46:22;5.20;99.90
7738;DHT22;29398;45.328;5.558;2024-01-10T12:47:25;5.20;99.90
7738;DHT22;29398;45.328;5.558;2024-01-10T12:48:27;5.30;99.90
7738;DHT22;29398;45.328;5.558;2024-01-10T12:49:28;5.30;99.90
7738;DHT22;29398;45.328;5.558;2024-01-10T12:50:30;6.40;99.90
7738;DHT22;29398;45.328;5.558;2024-01-10T12:51:32;5.40;99.90
7738;DHT22;29398;45.328;5.558;2024-01-10T12:52:34;5.40;99.90
7738;DHT22;29398;45.328;5.558;2024-01-10T12:53:42;5.40;99.90
7738;DHT22;29398;45.328;5.558;2024-01-10T12:54:43;5.40;99.90
7738;DHT22;29398;45.328;5.558;2024-01-10T12:55:47;5.50;99.90
7738;DHT22;29398;45.328;5.558;2024-01-10T12:56:48;5.50;99.90
7738;DHT22;29398;45.328;5.558;2024-01-10T12:57:51;5.50;99.90
7738;DHT22;29398;45.328;5.558;2024-01-10T12:58:52;5.60;99.90
7738;DHT22;29398;45.328;5.558;2024-01-10T12:59:54;5.60;99.90
7738;DHT22;29398;45.328;5.558;2024-01-10T13:00:55;5.50;99.90
7738;DHT22;29398;45.328;5.558;2024-01-10T13:01:56;5.60;99.90
7738;DHT22;29398;45.328;5.558;2024-01-10T13:02:58;5.60;99.90
7738;DHT22;29398;45.328;5.558;2024-01-10T13:03:59;5.50;99.90
7738;DHT22;29398;45.328;5.558;2024-01-10T13:05:01;5.50;99.90
7738;DHT22;29398;45.328;5.558;2024-01-10T13:06:03;5.50;99.90
7738;DHT22;29398;45.328;5.558;2024-01-10T13:07:06;5.50;99.90
7738;DHT22;29398;45.328;5.558;2024-01-10T13:08:07;5.50;99.90
7738;DHT22;29398;45.328;5.558;2024-01-10T13:09:08;5.50;99.90
7738;DHT22;29398;45.328;5.558;2024-01-10T13:10:10;5.50;99.90
7738;DHT22;29398;45.328;5.558;2024-01-10T13:11:14;5.50;99.90
7738;DHT22;29398;45.328;5.558;2024-01-10T13:12:16;5.60;99.90
7738;DHT22;29398;45.328;5.558;2024-01-10T13:13:19;5.60;99.90
7738;DHT22;29398;45.328;5.558;2024-01-10T13:14:22;5.60;99.90
7738;DHT22;29398;45.328;5.558;2024-01-10T13:15:23;5.60;99.90
7738;DHT22;29398;45.328;5.558;2024-01-10T13:16:25;5.60;99.90
7738;DHT22;29398;45.328;5.558;2024-01-10T13:17:26;5.60;99.90
7738;DHT22;29398;45.328;5.558;2024-01-10T13:18:28;5.60;99.90
7738;DHT22;29398;45.328;5.558;2024-01-10T13:19:30;5.70;99.90
7738;DHT22;29398;45.328;5.558;2024-01-10T13:20:32;5.60;99.90
7738;DHT22;29398;45.328;5.558;2024-01-10T13:21:33;5.60;99.90
7738;DHT22;29398;45.328;5.558;2024-01-10T13:22:36;5.60;99.90
7738;DHT22;29398;45.328;5.558;2024-01-10T13:23:37;5.60;99.90
7738;DHT22;29398;45.328;5.558;2024-01-10T13:24:38;5.60;99.90
7738;DHT22;29398;45.328;5.558;2024-01-10T13:25:40;5.60;99.90
7738;DHT22;29398;45.328;5.558;2024-01-10T13:26:42;5.60;99.90
7738;DHT22;29398;45.328;5.558;2024-01-10T13:27:44;5.60;99.90
7738;DHT22;29398;45.328;5.558;2024-01-10T13:28:46;5.50;99.90
7738;DHT22;29398;45.328;5.558;2024-01-10T13:29:49;5.50;99.90
7738;DHT22;29398;45.328;5.558;2024-01-10T13:30:50;5.40;99.90
7738;DHT22;29398;45.328;5.558;2024-01-10T13:31:52;5.50;99.90
7738;DHT22;29398;45.328;5.558;2024-01-10T13:32:53;5.40;99.90
7738;DHT22;29398;45.328;5.558;2024-01-10T13:33:55;5.40;99.90
7738;DHT22;29398;45.328;5.558;2024-01-10T13:34:57;5.50;99.90
7738;DHT22;29398;45.328;5.558;2024-01-10T13:35:58;5.50;99.90
7738;DHT22;29398;45.328;5.558;2024-01-10T13:37:01;5.50;99.90
7738;DHT22;29398;45.328;5.558;2024-01-10T13:38:03;5.50;99.90
7738;DHT22;29398;45.328;5.558;2024-01-10T13:39:05;5.50;99.90
7738;DHT22;29398;45.328;5.558;2024-01-10T13:40:08;5.50;99.90
7738;DHT22;29398;45.328;5.558;2024-01-10T13:41:10;5.50;99.90
7738;DHT22;29398;45.328;5.558;2024-01-10T13:42:13;5.50;99.90
7738;DHT22;29398;45.328;5.558;2024-01-10T13:43:14;5.50;99.90
7738;DHT22;29398;45.328;5.558;2024-01-10T13:44:16;5.50;99.90
7738;DHT22;29398;45.328;5.558;2024-01-10T13:45:17;5.50;99.90
7738;DHT22;29398;45.328;5.558;2024-01-10T13:46:21;5.40;99.90
7738;DHT22;29398;45.328;5.558;2024-01-10T13:47:22;5.40;99.90
7738;DHT22;29398;45.328;5.558;2024-01-10T13:48:24;5.40;99.90
7738;DHT22;29398;45.328;5.558;2024-01-10T13:49:25;5.50;99.90
7738;DHT22;29398;45.328;5.558;2024-01-10T13:50:27;5.50;99.90
7738;DHT22;29398;45.328;5.558;2024-01-10T13:51:30;5.50;99.90
7738;DHT22;29398;45.328;5.558;2024-01-10T13:52:32;5.50;99.90
7738;DHT22;29398;45.328;5.558;2024-01-10T13:53:34;5.50;99.90
7738;DHT22;29398;45.328;5.558;2024-01-10T13:54:37;5.50;99.90
7738;DHT22;29398;45.328;5.558;2024-01-10T13:55:38;5.50;99.90
7738;DHT22;29398;45.328;5.558;2024-01-10T13:56:40;5.50;99.90
7738;DHT22;29398;45.328;5.558;2024-01-10T13:57:42;5.50;99.90
7738;DHT22;29398;45.328;5.558;2024-01-10T13:58:43;5.50;99.90
7738;DHT22;29398;45.328;5.558;2024-01-10T13:59:45;5.50;99.90
7738;DHT22;29398;45.328;5.558;2024-01-10T14:00:47;5.50;99.90
7738;DHT22;29398;45.328;5.558;2024-01-10T14:01:50;5.50;99.90
7738;DHT22;29398;45.328;5.558;2024-01-10T14:02:51;5.50;99.90
7738;DHT22;29398;45.328;5.558;2024-01-10T14:03:55;5.60;99.90
7738;DHT22;29398;45.328;5.558;2024-01-10T14:04:57;5.60;99.90
7738;DHT22;29398;45.328;5.558;2024-01-10T14:05:59;5.60;99.90
7738;DHT22;29398;45.328;5.558;2024-01-10T14:07:00;5.50;99.90
7738;DHT22;29398;45.328;5.558;2024-01-10T14:08:01;5.50;99.90
7738;DHT22;29398;45.328;5.558;2024-01-10T14:09:03;5.60;99.90
7738;DHT22;29398;45.328;5.558;2024-01-10T14:10:05;5.60;99.90
7738;DHT22;29398;45.328;5.558;2024-01-10T14:11:06;5.50;99.90
7738;DHT22;29398;45.328;5.558;2024-01-10T14:12:09;5.60;99.90
7738;DHT22;29398;45.328;5.558;2024-01-10T14:13:11;5.60;99.90
7738;DHT22;29398;45.328;5.558;2024-01-10T14:14:13;5.60;99.90
7738;DHT22;29398;45.328;5.558;2024-01-10T14:15:15;5.60;99.90
7738;DHT22;29398;45.328;5.558;2024-01-10T14:16:17;5.50;99.90
7738;DHT22;29398;45.328;5.558;2024-01-10T14:17:18;5.60;99.90
7738;DHT22;29398;45.328;5.558;2024-01-10T14:18:19;5.60;99.90
7738;DHT22;29398;45.328;5.558;2024-01-10T14:19:22;5.60;99.90
7738;DHT22;29398;45.328;5.558;2024-01-10T14:20:23;5.60;99.90
7738;DHT22;29398;45.328;5.558;2024-01-10T14:21:26;5.60;99.90
7738;DHT22;29398;45.328;5.558;2024-01-10T14:22:27;5.60;99.90
7738;DHT22;29398;45.328;5.558;2024-01-10T14:23:30;5.60;99.90
7738;DHT22;29398;45.328;5.558;2024-01-10T14:24:31;5.60;99.90
7738;DHT22;29398;45.328;5.558;2024-01-10T14:25:33;5.50;99.90
7738;DHT22;29398;45.328;5.558;2024-01-10T14:26:35;5.50;99.90
7738;DHT22;29398;45.328;5.558;2024-01-10T14:27:37;5.50;99.90
7738;DHT22;29398;45.328;5.558;2024-01-10T14:28:40;5.40;99.90
7738;DHT22;29398;45.328;5.558;2024-01-10T14:29:42;5.40;99.90
7738;DHT22;29398;45.328;5.558;2024-01-10T14:30:44;5.40;99.90
7738;DHT22;29398;45.328;5.558;2024-01-10T14:31:46;5.40;99.90
7738;DHT22;29398;45.328;5.558;2024-01-10T14:32:47;5.40;99.90
7738;DHT22;29398;45.328;5.558;2024-01-10T14:33:49;5.40;99.90
7738;DHT22;29398;45.328;5.558;2024-01-10T14:34:50;5.40;99.90
7738;DHT22;29398;45.328;5.558;2024-01-10T14:35:53;5.40;99.90
7738;DHT22;29398;45.328;5.558;2024-01-10T14:36:54;5.40;99.90
7738;DHT22;29398;45.328;5.558;2024-01-10T14:37:56;5.40;99.90
7738;DHT22;29398;45.328;5.558;2024-01-10T14:38:57;5.40;99.90
7738;DHT22;29398;45.328;5.558;2024-01-10T14:39:59;5.40;99.90
7738;DHT22;29398;45.328;5.558;2024-01-10T14:41:01;5.40;99.90
7738;DHT22;29398;45.328;5.558;2024-01-10T14:42:04;5.40;99.90
7738;DHT22;29398;45.328;5.558;2024-01-10T14:43:05;5.40;99.90
7738;DHT22;29398;45.328;5.558;2024-01-10T14:44:08;5.40;99.90
7738;DHT22;29398;45.328;5.558;2024-01-10T14:45:09;5.40;99.90
7738;DHT22;29398;45.328;5.558;2024-01-10T14:46:12;5.40;99.90
7738;DHT22;29398;45.328;5.558;2024-01-10T14:47:13;5.30;99.90
7738;DHT22;29398;45.328;5.558;2024-01-10T14:48:15;5.30;99.90
7738;DHT22;29398;45.328;5.558;2024-01-10T14:49:16;5.30;99.90
7738;DHT22;29398;45.328;5.558;2024-01-10T14:50:18;5.30;99.90
7738;DHT22;29398;45.328;5.558;2024-01-10T14:51:20;5.40;99.90
7738;DHT22;29398;45.328;5.558;2024-01-10T14:52:22;5.30;99.90
7738;DHT22;29398;45.328;5.558;2024-01-10T14:53:23;5.30;99.90
7738;DHT22;29398;45.328;5.558;2024-01-10T14:54:25;5.30;99.90
7738;DHT22;29398;45.328;5.558;2024-01-10T14:55:27;5.30;99.90
7738;DHT22;29398;45.328;5.558;2024-01-10T14:56:29;5.30;99.90
7738;DHT22;29398;45.328;5.558;2024-01-10T14:57:31;5.30;99.90
7738;DHT22;29398;45.328;5.558;2024-01-10T14:58:33;5.20;99.90
7738;DHT22;29398;45.328;5.558;2024-01-10T14:59:37;5.30;99.90
7738;DHT22;29398;45.328;5.558;2024-01-10T15:00:38;5.30;99.90
7738;DHT22;29398;45.328;5.558;2024-01-10T15:01:44;5.30;99.90
7738;DHT22;29398;45.328;5.558;2024-01-10T15:02:45;5.30;99.90